createdAt,value
2023-03-21T01:26:05.404Z,23.30
2023-03-21T01:31:02.200Z,23.70
2023-03-21T01:33:30.624Z,23.30
2023-03-21T01:36:10.291Z,23.20
2023-03-21T01:38:42.575Z,23.20
2023-03-21T01:58:47.934Z,23.20
2023-03-21T02:01:16.797Z,23.10
2023-03-21T02:03:51.291Z,23.20
2023-03-21T02:06:24.702Z,23.20
2023-03-21T02:08:54.458Z,23.10
2023-03-21T02:11:23.760Z,23.10
2023-03-21T02:13:55.822Z,23.10
2023-03-21T02:16:34.907Z,23.10
2023-03-21T02:19:12.685Z,23.10
2023-03-21T02:21:51.558Z,23.10
2023-03-21T02:24:31.331Z,23.10
2023-03-21T02:27:07.599Z,23.10
2023-03-21T02:30:20.205Z,23.10
2023-03-21T02:33:14.493Z,23.00
2023-03-21T02:35:56.840Z,23.00
2023-03-21T02:38:30.319Z,23.00
2023-03-21T02:41:05.335Z,22.90
2023-03-21T02:43:38.752Z,23.00
2023-03-21T02:46:09.336Z,22.90
2023-03-21T02:48:50.296Z,22.90
2023-03-21T02:51:20.009Z,22.90
2023-03-21T02:54:12.948Z,22.90
2023-03-21T02:56:41.483Z,22.90
2023-03-21T02:59:09.460Z,22.90
2023-03-21T03:01:37.436Z,22.90
2023-03-21T03:04:05.674Z,22.90
2023-03-21T03:06:38.295Z,22.90
2023-03-21T03:09:17.705Z,22.80
2023-03-21T03:11:46.085Z,22.90
2023-03-21T03:14:44.153Z,22.80
2023-03-21T03:17:21.549Z,22.80
2023-03-21T03:19:55.781Z,22.80
2023-03-21T03:22:26.009Z,22.80
2023-03-21T03:24:57.148Z,22.80
2023-03-21T03:27:27.003Z,22.80
2023-03-21T03:29:54.955Z,22.80
2023-03-21T03:32:27.164Z,22.80
2023-03-21T03:34:56.281Z,22.70
2023-03-21T03:37:27.497Z,22.70
2023-03-21T03:39:59.351Z,22.70
2023-03-21T03:42:29.263Z,22.70
2023-03-21T03:44:57.293Z,22.70
2023-03-21T03:47:32.897Z,22.70
2023-03-21T03:50:06.452Z,22.70
2023-03-21T03:52:40.023Z,22.70
2023-03-21T03:55:13.219Z,22.70
2023-03-21T03:57:42.188Z,22.60
2023-03-21T04:00:13.028Z,22.70
2023-03-21T04:02:41.042Z,22.60
2023-03-21T04:05:09.899Z,22.60
2023-03-21T04:07:38.189Z,22.60
2023-03-21T04:10:06.990Z,22.60
2023-03-21T04:12:36.324Z,22.60
2023-03-21T04:15:10.746Z,22.60
2023-03-21T04:17:39.575Z,22.60
2023-03-21T04:20:15.003Z,22.60
2023-03-21T04:22:46.676Z,22.60
2023-03-21T04:25:21.924Z,22.60
2023-03-21T04:27:55.616Z,22.60
2023-03-21T04:30:24.780Z,22.60
2023-03-21T04:32:56.697Z,22.50
2023-03-21T04:35:25.053Z,22.50
2023-03-21T04:37:53.073Z,22.50
2023-03-21T04:40:21.084Z,22.50
2023-03-21T04:42:49.430Z,22.50
2023-03-21T04:45:18.902Z,22.50
2023-03-21T04:47:47.166Z,22.50
2023-03-21T04:50:15.911Z,22.50
2023-03-21T04:52:45.611Z,22.50
2023-03-21T04:55:14.661Z,22.50
2023-03-21T04:57:42.663Z,22.40
2023-03-21T05:00:14.476Z,22.40
2023-03-21T05:02:43.939Z,22.40
2023-03-21T05:05:12.362Z,22.40
2023-03-21T05:07:40.376Z,22.40
2023-03-21T05:10:09.563Z,22.40
2023-03-21T05:12:37.554Z,22.40
2023-03-21T05:15:07.851Z,22.40
2023-03-21T05:17:36.615Z,22.40
2023-03-21T05:20:09.724Z,22.40
2023-03-21T05:22:40.784Z,22.30
2023-03-21T05:25:09.724Z,22.30
2023-03-21T05:27:37.744Z,22.30
2023-03-21T05:30:07.224Z,22.30
2023-03-21T05:32:35.627Z,22.30
2023-03-21T05:35:05.136Z,22.30
2023-03-21T05:37:33.079Z,22.30
2023-03-21T05:40:01.082Z,22.30
2023-03-21T05:42:29.190Z,22.30
2023-03-21T05:44:57.154Z,22.30
2023-03-21T05:47:25.125Z,22.30
2023-03-21T05:49:53.074Z,22.30
2023-03-21T05:52:22.639Z,22.30
2023-03-21T05:54:50.663Z,22.30
2023-03-21T05:57:19.213Z,22.30
2023-03-21T05:59:47.171Z,22.20
2023-03-21T06:02:15.711Z,22.30
2023-03-21T06:04:44.282Z,22.30
2023-03-21T06:07:12.267Z,22.30
2023-03-21T06:09:42.698Z,22.20
2023-03-21T06:12:10.670Z,22.20
2023-03-21T06:14:38.617Z,22.20
2023-03-21T06:17:06.602Z,22.20
2023-03-21T06:19:37.032Z,22.20
2023-03-21T06:22:05.148Z,22.20
2023-03-21T06:24:33.536Z,22.20
2023-03-21T06:27:04.077Z,22.20
2023-03-21T06:29:32.217Z,22.20
2023-03-21T06:32:00.707Z,22.20
2023-03-21T06:34:28.679Z,22.20
2023-03-21T06:36:56.954Z,22.20
2023-03-21T06:39:24.914Z,22.10
2023-03-21T06:41:52.866Z,22.10
2023-03-21T06:44:22.814Z,22.10
2023-03-21T06:46:50.965Z,22.10
2023-03-21T06:49:19.002Z,22.10
2023-03-21T06:51:46.973Z,22.10
2023-03-21T06:54:17.683Z,22.10
2023-03-21T06:56:45.806Z,22.10
2023-03-21T06:59:13.761Z,22.10
2023-03-21T07:01:43.805Z,22.00
2023-03-21T07:04:11.812Z,22.10
2023-03-21T07:06:39.802Z,22.10
2023-03-21T07:09:07.884Z,22.00
2023-03-21T07:11:36.904Z,22.00
2023-03-21T07:14:04.894Z,22.00
2023-03-21T07:16:34.930Z,22.00
2023-03-21T07:19:04.372Z,22.00
2023-03-21T07:21:32.750Z,22.00
2023-03-21T07:24:01.152Z,22.00
2023-03-21T07:26:29.250Z,22.00
2023-03-21T07:28:57.233Z,22.00
2023-03-21T07:31:26.752Z,22.00
2023-03-21T07:33:54.752Z,22.00
2023-03-21T07:36:26.564Z,22.00
2023-03-21T07:38:54.514Z,22.00
2023-03-21T07:41:22.491Z,22.10
2023-03-21T07:43:50.523Z,22.10
2023-03-21T07:46:18.622Z,22.10
2023-03-21T07:48:46.615Z,22.20
2023-03-21T07:51:14.686Z,22.20
2023-03-21T07:53:48.844Z,22.20
2023-03-21T07:56:17.022Z,22.20
2023-03-21T07:58:46.554Z,22.20
2023-03-21T08:01:14.552Z,22.20
2023-03-21T08:06:11.719Z,22.30
2023-03-21T08:08:39.936Z,22.30
2023-03-21T08:11:09.503Z,22.30
2023-03-21T08:13:37.456Z,22.30
2023-03-21T08:16:05.985Z,22.40
2023-03-21T08:18:34.309Z,22.40
2023-03-21T08:21:02.832Z,22.40
2023-03-21T08:23:31.107Z,22.40
2023-03-21T08:26:01.514Z,22.50
2023-03-21T08:28:31.407Z,22.40
2023-03-21T08:30:59.454Z,22.40
2023-03-21T08:33:27.481Z,22.50
2023-03-21T08:35:55.756Z,22.50
2023-03-21T08:38:29.807Z,22.60
2023-03-21T08:41:05.436Z,22.50
2023-03-21T08:46:04.536Z,22.50
2023-03-21T08:48:32.610Z,22.60
2023-03-21T08:51:01.415Z,22.60
2023-03-21T08:53:30.254Z,22.50
2023-03-21T08:55:58.249Z,22.50
2023-03-21T08:58:34.490Z,22.50
2023-03-21T09:01:03.904Z,22.50
2023-03-21T09:03:31.904Z,22.50
2023-03-21T09:06:00.773Z,22.50
2023-03-21T09:08:28.780Z,22.50
2023-03-21T09:10:57.360Z,22.40
2023-03-21T09:13:25.617Z,22.50
2023-03-21T09:15:54.203Z,22.50
2023-03-21T09:18:43.864Z,22.40
2023-03-21T09:21:16.596Z,22.40
2023-03-21T09:23:48.530Z,22.40
2023-03-21T09:26:16.939Z,22.30
2023-03-21T09:28:46.219Z,22.30
2023-03-21T09:31:16.647Z,22.40
2023-03-21T09:33:46.308Z,22.30
2023-03-21T09:36:15.513Z,22.30
2023-03-21T09:38:45.673Z,22.40
2023-03-21T09:41:22.295Z,22.30
2023-03-21T09:43:58.356Z,22.30
2023-03-21T09:46:28.728Z,22.30
2023-03-21T09:48:59.621Z,22.30
2023-03-21T09:51:29.367Z,22.30
2023-03-21T09:56:27.143Z,22.30
2023-03-21T09:58:58.688Z,22.30
2023-03-21T10:01:28.488Z,22.30
2023-03-21T10:04:00.377Z,22.40
2023-03-21T10:06:30.595Z,22.40
2023-03-21T10:09:00.453Z,22.40
2023-03-21T10:11:29.713Z,22.40
2023-03-21T10:13:58.451Z,22.40
2023-03-21T10:16:28.874Z,22.40
2023-03-21T10:18:58.488Z,22.40
2023-03-21T10:21:56.385Z,22.40
2023-03-21T10:24:18.491Z,22.50
2023-03-21T10:26:46.456Z,22.40
2023-03-21T10:29:16.567Z,22.30
2023-03-21T10:31:44.822Z,22.30
2023-03-21T10:34:17.861Z,22.30
2023-03-21T10:36:46.434Z,22.30
2023-03-21T10:39:22.152Z,22.30
2023-03-21T10:41:50.132Z,22.20
2023-03-21T10:44:18.794Z,22.20
2023-03-21T10:46:54.283Z,22.30
2023-03-21T10:49:23.700Z,22.20
2023-03-21T10:51:52.947Z,22.20
2023-03-21T10:54:22.009Z,22.20
2023-03-21T10:56:57.010Z,22.20
2023-03-21T10:59:25.063Z,22.20
2023-03-21T11:01:55.270Z,22.10
2023-03-21T11:04:26.809Z,22.10
2023-03-21T11:06:55.916Z,22.10
2023-03-21T11:09:25.070Z,22.10
2023-03-21T11:11:54.792Z,22.10
2023-03-21T11:14:28.302Z,22.10
2023-03-21T11:16:56.381Z,22.00
2023-03-21T11:19:32.372Z,22.20
2023-03-21T11:22:00.430Z,22.10
2023-03-21T11:24:30.219Z,22.20
2023-03-21T11:26:59.753Z,22.20
2023-03-21T11:29:30.415Z,22.20
2023-03-21T11:32:02.520Z,22.20
2023-03-21T11:34:35.885Z,22.20
2023-03-21T11:37:04.273Z,22.20
2023-03-21T11:39:34.197Z,22.20
2023-03-21T11:42:02.184Z,21.40
2023-03-21T11:44:33.382Z,22.20
2023-03-21T11:47:01.900Z,22.20
2023-03-21T11:49:29.940Z,22.20
2023-03-21T11:52:07.557Z,22.20
2023-03-21T11:54:41.836Z,22.20
2023-03-21T11:59:43.518Z,22.50
2023-03-21T12:02:45.238Z,22.30
2023-03-21T12:05:20.031Z,22.10
2023-03-21T12:07:53.345Z,22.20
2023-03-21T12:10:32.231Z,22.20
2023-03-21T12:13:05.650Z,22.10
2023-03-21T12:15:37.320Z,22.10
2023-03-21T12:18:08.042Z,22.20
2023-03-21T12:20:42.446Z,22.10
2023-03-21T12:23:21.955Z,22.10
2023-03-21T12:25:54.209Z,22.10
2023-03-21T12:28:33.012Z,22.20
2023-03-21T12:31:05.441Z,22.10
2023-03-21T12:33:43.158Z,22.10
2023-03-21T12:36:32.682Z,22.10
2023-03-21T12:39:06.838Z,22.10
2023-03-21T12:41:35.543Z,22.10
2023-03-21T12:44:04.874Z,22.10
2023-03-21T12:46:35.708Z,22.10
2023-03-21T12:49:04.676Z,23.50
2023-03-21T12:51:34.138Z,22.10
2023-03-21T12:54:12.290Z,22.10
2023-03-21T12:56:42.988Z,22.10
2023-03-21T12:59:17.361Z,22.10
2023-03-21T13:01:45.334Z,22.10
2023-03-21T13:04:36.781Z,22.10
2023-03-21T13:07:06.495Z,22.10
2023-03-21T13:09:38.423Z,22.10
2023-03-21T13:12:23.586Z,22.00
2023-03-21T13:15:07.813Z,22.10
2023-03-21T13:17:40.175Z,22.10
2023-03-21T13:20:12.036Z,22.10
2023-03-21T13:22:40.220Z,22.10
2023-03-21T13:25:18.265Z,22.10
2023-03-21T13:27:51.774Z,22.00
2023-03-21T13:30:21.337Z,22.10
2023-03-21T13:32:50.453Z,22.00
2023-03-21T13:35:20.593Z,22.10
2023-03-21T13:37:51.888Z,22.00
2023-03-21T13:42:54.147Z,22.00
2023-03-21T13:45:29.199Z,22.00
2023-03-21T13:47:57.835Z,22.00
2023-03-21T13:50:30.769Z,22.00
2023-03-21T13:53:24.401Z,22.00
2023-03-21T13:56:26.712Z,22.00
2023-03-21T13:58:56.712Z,22.00
2023-03-21T14:01:39.802Z,22.00
2023-03-21T14:04:12.575Z,22.00
2023-03-21T14:06:49.063Z,22.00
2023-03-21T14:09:21.346Z,21.90
2023-03-21T14:11:54.661Z,22.00
2023-03-21T14:14:26.158Z,22.00
2023-03-21T14:16:55.357Z,23.00
2023-03-21T14:19:29.172Z,22.00
2023-03-21T14:21:57.160Z,22.00
2023-03-21T14:24:26.051Z,21.90
2023-03-21T14:26:58.974Z,21.90
2023-03-21T14:29:29.025Z,22.00
2023-03-21T14:31:59.920Z,22.00
2023-03-21T14:34:28.198Z,22.00
2023-03-21T14:36:58.673Z,22.00
2023-03-21T14:39:28.807Z,22.00
2023-03-21T14:41:58.782Z,21.90
2023-03-21T14:44:27.936Z,21.90
2023-03-21T14:47:00.588Z,21.90
2023-03-21T14:49:29.491Z,21.90
2023-03-21T14:51:58.581Z,21.90
2023-03-21T14:54:27.301Z,21.90
2023-03-21T14:57:01.293Z,21.90
2023-03-21T14:59:33.156Z,21.90
2023-03-21T15:02:02.688Z,21.90
2023-03-21T15:04:31.806Z,21.90
2023-03-21T15:07:03.387Z,21.90
2023-03-21T15:09:39.744Z,21.90
2023-03-21T15:12:10.861Z,21.90
2023-03-21T15:14:39.052Z,21.90
2023-03-21T15:17:09.207Z,21.90
2023-03-21T15:19:38.553Z,21.90
2023-03-21T15:22:10.286Z,21.90
2023-03-21T15:24:40.394Z,21.90
2023-03-21T15:27:13.729Z,21.90
2023-03-21T15:29:43.354Z,21.80
2023-03-21T15:32:16.247Z,21.90
2023-03-21T15:34:44.604Z,21.80
2023-03-21T15:37:17.154Z,21.80
2023-03-21T15:39:45.212Z,21.80
2023-03-21T15:42:31.104Z,21.80
2023-03-21T15:45:03.398Z,21.80
2023-03-21T15:47:45.583Z,21.80
2023-03-21T15:50:23.471Z,21.80
2023-03-21T15:52:52.045Z,21.80
2023-03-21T15:55:27.141Z,21.80
2023-03-21T15:58:01.355Z,21.80
2023-03-21T16:00:35.908Z,21.80
2023-03-21T16:03:06.492Z,21.80
2023-03-21T16:05:35.999Z,22.00
2023-03-21T16:08:08.987Z,21.80
2023-03-21T16:10:38.679Z,21.80
2023-03-21T16:13:08.138Z,21.80
2023-03-21T16:15:36.242Z,21.80
2023-03-21T16:18:06.211Z,21.80
2023-03-21T16:20:39.303Z,21.80
2023-03-21T16:23:08.138Z,21.80
2023-03-21T16:25:36.300Z,21.80
2023-03-21T16:28:04.312Z,21.70
2023-03-21T16:30:33.698Z,21.70
2023-03-21T16:33:01.723Z,21.70
2023-03-21T16:35:29.737Z,21.70
2023-03-21T16:37:58.167Z,21.70
2023-03-21T16:40:28.834Z,21.70
2023-03-21T16:42:56.812Z,21.70
2023-03-21T16:45:24.838Z,21.80
2023-03-21T16:47:54.726Z,21.80
2023-03-21T16:50:26.743Z,21.80
2023-03-21T16:52:54.892Z,21.80
2023-03-21T16:55:22.897Z,21.70
2023-03-21T16:57:52.485Z,21.70
2023-03-21T17:00:25.731Z,21.70
2023-03-21T17:02:58.909Z,21.80
2023-03-21T17:05:29.004Z,21.70
2023-03-21T17:07:57.293Z,21.70
2023-03-21T17:10:27.355Z,21.80
2023-03-21T17:12:55.430Z,21.80
2023-03-21T17:15:23.401Z,21.80
2023-03-21T17:17:52.067Z,21.80
2023-03-21T17:20:23.021Z,21.80
2023-03-21T17:22:52.937Z,21.80
2023-03-21T17:25:21.454Z,21.80
2023-03-21T17:27:56.822Z,21.80
2023-03-21T17:30:27.897Z,21.80
2023-03-21T17:32:56.143Z,21.80
2023-03-21T17:35:27.069Z,21.80
2023-03-21T17:37:58.420Z,21.80
2023-03-21T17:40:27.789Z,21.80
2023-03-21T17:42:56.191Z,22.00
2023-03-21T17:45:24.208Z,21.90
2023-03-21T17:47:52.583Z,21.90
2023-03-21T17:50:22.605Z,21.90
2023-03-21T17:52:52.218Z,22.00
2023-03-21T17:55:21.315Z,22.00
2023-03-21T17:57:49.363Z,22.00
2023-03-21T18:05:17.456Z,22.00
2023-03-21T18:08:08.646Z,22.10
2023-03-21T18:10:35.594Z,22.00
2023-03-21T18:13:03.875Z,22.00
2023-03-21T18:15:31.887Z,22.00
2023-03-21T18:18:04.343Z,22.00
2023-03-21T18:23:21.427Z,22.00
2023-03-21T18:25:53.288Z,22.00
2023-03-21T18:28:21.763Z,21.90
2023-03-21T18:31:07.852Z,21.90
2023-03-21T18:33:39.039Z,21.90
2023-03-21T18:36:08.206Z,21.90
2023-03-21T18:38:36.490Z,21.90
2023-03-21T18:41:06.206Z,21.90
2023-03-21T18:48:51.777Z,21.90
2023-03-21T18:51:21.870Z,21.90
2023-03-21T18:53:49.886Z,21.90
2023-03-21T18:57:13.061Z,22.00
2023-03-21T18:59:11.741Z,22.00
2023-03-21T19:01:39.809Z,22.00
2023-03-21T19:04:21.507Z,22.00
2023-03-21T19:06:51.667Z,22.00
2023-03-21T19:11:49.577Z,22.00
2023-03-21T19:14:17.946Z,21.80
2023-03-21T19:17:34.198Z,21.90
2023-03-21T19:24:31.925Z,22.10
2023-03-21T19:27:01.403Z,22.10
2023-03-21T19:31:58.099Z,22.20
2023-03-21T19:34:26.567Z,22.30
2023-03-21T19:36:55.128Z,22.40
2023-03-21T19:39:24.028Z,22.60
2023-03-21T19:41:55.335Z,22.70
2023-03-21T19:44:33.393Z,22.90
2023-03-21T20:07:33.364Z,24.30
2023-03-21T20:10:01.695Z,24.30
2023-03-21T20:12:29.755Z,24.30
2023-03-21T20:15:12.149Z,24.30
2023-03-21T20:17:45.133Z,24.30
2023-03-21T20:20:17.435Z,24.20
2023-03-21T20:23:07.361Z,24.20
2023-03-21T20:25:36.474Z,24.20
2023-03-21T20:28:25.940Z,24.10
2023-03-21T20:30:56.830Z,24.10
2023-03-21T20:33:25.209Z,23.30
2023-03-21T20:38:47.671Z,23.90
2023-03-21T20:46:35.288Z,23.80
2023-03-21T20:49:06.709Z,23.80
2023-03-21T20:54:24.958Z,24.30
2023-03-21T20:56:53.247Z,23.60
2023-03-21T20:59:27.113Z,23.60
2023-03-21T21:01:57.749Z,23.60
2023-03-21T21:04:46.990Z,23.50
2023-03-21T21:07:17.127Z,23.40
2023-03-21T21:12:15.035Z,23.40
2023-03-21T21:14:43.620Z,23.30
2023-03-21T21:20:02.330Z,23.30
2023-03-21T21:22:31.577Z,23.20
2023-03-21T21:27:28.581Z,23.10
2023-03-21T21:29:57.504Z,23.00
2023-03-21T21:32:26.818Z,23.10
2023-03-21T21:34:57.339Z,23.10
2023-03-21T21:37:25.978Z,23.00
2023-03-21T21:39:54.043Z,23.00
2023-03-21T21:42:22.406Z,23.10
2023-03-21T21:44:50.334Z,23.10
2023-03-21T21:49:48.521Z,23.40
2023-03-21T21:52:24.096Z,23.50
2023-03-21T21:54:52.463Z,23.60
2023-03-21T21:57:20.425Z,23.80
2023-03-21T21:59:48.386Z,23.90
2023-03-21T22:02:17.150Z,24.10
2023-03-21T22:04:45.189Z,24.20
2023-03-21T22:07:15.149Z,24.20
2023-03-21T22:14:41.961Z,24.40
2023-03-21T22:17:09.948Z,24.30
2023-03-21T22:19:40.284Z,24.30
2023-03-21T22:22:08.546Z,24.30
2023-03-21T22:24:38.299Z,24.30
2023-03-21T22:29:35.412Z,24.20
2023-03-21T22:47:03.990Z,23.60
2023-03-21T22:49:32.963Z,23.80
2023-03-21T23:09:29.285Z,23.50
2023-03-21T23:11:57.246Z,23.50
2023-03-21T23:16:55.049Z,23.40
2023-03-21T23:24:21.949Z,23.60
2023-03-21T23:26:49.941Z,23.60
2023-03-21T23:31:47.762Z,23.80
2023-03-21T23:36:44.079Z,24.30
